createdAt,value
2022-08-23T00:00:42.720Z,2.53
2022-08-23T00:03:44.804Z,2.20
2022-08-23T00:06:48.292Z,1.95
2022-08-23T00:09:49.939Z,2.30
2022-08-23T00:12:51.664Z,2.50
2022-08-23T00:15:53.438Z,2.40
2022-08-23T00:18:55.484Z,2.50
2022-08-23T00:21:57.268Z,2.60
2022-08-23T00:24:59.245Z,2.40
2022-08-23T00:28:01.081Z,2.30
2022-08-23T00:31:03.561Z,2.53
2022-08-23T00:34:05.415Z,2.72
2022-08-23T00:37:08.856Z,2.17
2022-08-23T00:40:14.146Z,2.42
2022-08-23T00:43:36.487Z,2.20
2022-08-23T00:47:10.447Z,2.33
2022-08-23T00:50:42.265Z,2.35
2022-08-23T00:53:48.844Z,2.60
2022-08-23T00:56:51.998Z,2.58
2022-08-23T00:59:53.798Z,2.22
2022-08-23T01:02:57.704Z,2.60
2022-08-23T01:06:11.622Z,2.90
2022-08-23T01:09:16.902Z,2.50
2022-08-23T01:12:33.031Z,2.20
2022-08-23T01:15:42.710Z,2.25
2022-08-23T01:18:46.260Z,3.10
2022-08-23T01:21:56.153Z,2.60
2022-08-23T01:25:07.741Z,2.90
2022-08-23T01:28:14.493Z,2.30
2022-08-23T01:31:18.684Z,2.53
2022-08-23T01:34:28.372Z,2.53
2022-08-23T01:37:30.091Z,2.47
2022-08-23T01:40:32.722Z,2.28
2022-08-23T01:43:34.492Z,2.35
2022-08-23T01:46:36.505Z,2.85
2022-08-23T01:49:38.219Z,3.10
2022-08-23T01:52:47.124Z,2.50
2022-08-23T01:55:51.476Z,2.65
2022-08-23T01:58:55.014Z,2.58
2022-08-23T02:01:59.139Z,2.63
2022-08-23T02:05:01.369Z,2.78
2022-08-23T02:08:26.340Z,2.55
2022-08-23T02:11:33.656Z,2.70
2022-08-23T02:14:37.382Z,2.72
2022-08-23T02:17:44.332Z,2.83
2022-08-23T02:20:48.944Z,2.63
2022-08-23T02:23:56.971Z,2.70
2022-08-23T02:27:02.527Z,2.85
2022-08-23T02:30:05.617Z,2.58
2022-08-23T02:33:07.950Z,2.40
2022-08-23T02:36:10.847Z,2.50
2022-08-23T02:39:16.369Z,2.63
2022-08-23T02:42:18.160Z,2.70
2022-08-23T02:45:20.038Z,2.70
2022-08-23T02:48:22.741Z,2.75
2022-08-23T02:51:35.604Z,2.33
2022-08-23T02:54:37.351Z,2.65
2022-08-23T02:57:40.102Z,2.53
2022-08-23T03:00:50.810Z,2.30
2022-08-23T03:03:53.870Z,2.50
2022-08-23T03:06:55.709Z,2.40
2022-08-23T03:09:58.232Z,2.78
2022-08-23T03:13:02.734Z,3.08
2022-08-23T03:16:05.024Z,2.60
2022-08-23T03:19:07.209Z,2.65
2022-08-23T03:22:09.497Z,2.53
2022-08-23T03:25:11.751Z,2.35
2022-08-23T03:28:31.037Z,2.70
2022-08-23T03:31:33.469Z,2.65
2022-08-23T03:34:41.081Z,2.40
2022-08-23T03:37:44.694Z,2.72
2022-08-23T03:40:48.316Z,2.80
2022-08-23T03:43:50.845Z,2.55
2022-08-23T03:46:53.424Z,2.70
2022-08-23T03:49:55.494Z,2.22
2022-08-23T03:52:57.106Z,2.50
2022-08-23T03:55:59.603Z,2.60
2022-08-23T03:59:05.534Z,2.58
2022-08-23T04:02:08.226Z,2.60
2022-08-23T04:05:11.063Z,2.65
2022-08-23T04:08:34.543Z,2.47
2022-08-23T04:11:39.877Z,2.80
2022-08-23T04:14:42.087Z,2.58
2022-08-23T04:17:44.054Z,2.78
2022-08-23T04:20:45.947Z,3.45
2022-08-23T04:23:47.630Z,3.03
2022-08-23T04:26:49.475Z,2.67
2022-08-23T04:29:52.841Z,2.90
2022-08-23T04:32:54.782Z,3.08
2022-08-23T04:35:59.383Z,3.10
2022-08-23T04:39:01.490Z,2.92
2022-08-23T04:42:18.416Z,2.92
2022-08-23T04:45:21.459Z,2.80
2022-08-23T04:48:26.887Z,2.97
2022-08-23T04:51:29.650Z,2.70
2022-08-23T04:54:31.432Z,3.20
2022-08-23T04:57:58.149Z,3.13
2022-08-23T05:01:07.833Z,2.75
2022-08-23T05:04:09.901Z,2.47
2022-08-23T05:07:15.778Z,2.67
2022-08-23T05:10:17.741Z,2.70
2022-08-23T05:13:23.491Z,2.80
2022-08-23T05:16:25.531Z,2.67
2022-08-23T05:19:35.496Z,2.95
2022-08-23T05:22:42.235Z,2.90
2022-08-23T05:26:03.139Z,2.80
2022-08-23T05:29:10.575Z,3.22
2022-08-23T05:32:18.672Z,3.38
2022-08-23T05:35:20.554Z,3.20
2022-08-23T05:38:23.327Z,2.95
2022-08-23T05:41:37.941Z,3.22
2022-08-23T05:44:44.382Z,2.88
2022-08-23T05:47:46.987Z,3.10
2022-08-23T05:51:19.531Z,3.13
2022-08-23T05:54:21.489Z,2.93
2022-08-23T05:57:38.455Z,2.92
2022-08-23T06:00:41.111Z,2.70
2022-08-23T06:03:44.675Z,2.92
2022-08-23T06:06:46.500Z,3.00
2022-08-23T06:09:48.336Z,2.78
2022-08-23T06:12:50.299Z,3.17
2022-08-23T06:15:52.116Z,3.15
2022-08-23T06:18:56.205Z,3.75
2022-08-23T06:22:18.758Z,2.90
2022-08-23T06:25:22.115Z,3.47
2022-08-23T06:28:32.326Z,2.67
2022-08-23T06:31:52.922Z,2.70
2022-08-23T06:35:38.287Z,3.05
2022-08-23T06:38:54.913Z,3.00
2022-08-23T06:42:37.962Z,3.22
2022-08-23T06:45:43.944Z,3.00
2022-08-23T06:48:53.271Z,2.65
2022-08-23T06:51:59.993Z,2.88
2022-08-23T06:55:13.880Z,2.72
2022-08-23T06:58:36.329Z,2.63
2022-08-23T07:01:58.004Z,2.90
2022-08-23T07:05:08.216Z,2.67
2022-08-23T07:08:13.596Z,2.47
2022-08-23T07:11:15.941Z,2.58
2022-08-23T07:14:20.228Z,2.63
2022-08-23T07:17:22.645Z,2.63
2022-08-23T07:20:25.043Z,2.80
2022-08-23T07:23:28.260Z,2.22
2022-08-23T07:26:31.571Z,2.40
2022-08-23T07:29:33.736Z,2.30
2022-08-23T07:32:35.660Z,2.13
2022-08-23T07:35:55.029Z,2.42
2022-08-23T07:38:58.507Z,2.30
2022-08-23T07:42:22.594Z,2.20
2022-08-23T07:45:26.520Z,2.03
2022-08-23T07:48:53.072Z,2.20
2022-08-23T07:51:58.976Z,2.22
2022-08-23T07:55:01.952Z,2.10
2022-08-23T07:58:24.853Z,2.25
2022-08-23T08:01:52.939Z,2.22
2022-08-23T08:04:55.109Z,2.13
2022-08-23T08:07:57.000Z,2.20
2022-08-23T08:10:58.693Z,1.88
2022-08-23T08:14:05.040Z,2.30
2022-08-23T08:17:07.069Z,2.25
2022-08-23T08:20:30.978Z,2.33
2022-08-23T08:23:32.932Z,2.25
2022-08-23T08:26:53.624Z,2.28
2022-08-23T08:29:55.962Z,2.38
2022-08-23T08:32:57.817Z,2.33
2022-08-23T08:36:02.072Z,2.38
2022-08-23T08:39:11.232Z,2.20
2022-08-23T08:42:13.140Z,2.00
2022-08-23T08:45:35.350Z,3.65
2022-08-23T08:48:43.301Z,2.17
2022-08-23T08:51:55.236Z,2.15
2022-08-23T08:55:14.091Z,2.20
2022-08-23T08:58:26.519Z,2.50
2022-08-23T09:01:31.383Z,2.05
2022-08-23T09:04:34.750Z,2.17
2022-08-23T09:07:45.285Z,2.17
2022-08-23T09:11:35.157Z,2.33
2022-08-23T09:14:47.599Z,2.25
2022-08-23T09:17:55.922Z,2.08
2022-08-23T09:21:01.780Z,2.28
2022-08-23T09:24:05.094Z,2.92
2022-08-23T09:27:23.762Z,2.60
2022-08-23T09:30:46.948Z,2.22
2022-08-23T09:33:49.840Z,1.67
2022-08-23T09:37:16.758Z,1.90
2022-08-23T09:40:41.269Z,1.60
2022-08-23T09:43:48.570Z,1.70
2022-08-23T09:47:05.720Z,1.88
2022-08-23T09:50:24.326Z,1.40
2022-08-23T09:53:28.101Z,1.40
2022-08-23T09:56:34.020Z,1.60
2022-08-23T09:59:51.777Z,1.45
2022-08-23T10:03:26.746Z,1.42
2022-08-23T10:06:35.129Z,1.50
2022-08-23T10:09:40.651Z,1.30
2022-08-23T10:12:43.261Z,1.17
2022-08-23T10:16:05.614Z,1.58
2022-08-23T10:19:35.620Z,1.55
2022-08-23T10:22:45.788Z,1.60
2022-08-23T10:26:19.227Z,1.25
2022-08-23T10:29:48.596Z,1.63
2022-08-23T10:33:15.273Z,1.90
2022-08-23T10:36:28.149Z,1.20
2022-08-23T10:39:32.199Z,1.25
2022-08-23T10:42:55.345Z,1.33
2022-08-23T10:46:01.804Z,1.25
2022-08-23T10:49:15.436Z,1.30
2022-08-23T10:52:30.921Z,1.00
2022-08-23T10:55:55.157Z,1.30
2022-08-23T10:59:05.101Z,1.00
2022-08-23T11:02:25.154Z,1.20
2022-08-23T11:05:41.049Z,0.88
2022-08-23T11:09:01.019Z,1.00
2022-08-23T11:12:21.014Z,1.30
2022-08-23T11:15:44.582Z,1.05
2022-08-23T11:18:50.782Z,1.20
2022-08-23T11:22:19.000Z,0.95
2022-08-23T11:25:22.831Z,0.80
2022-08-23T11:28:45.163Z,0.77
2022-08-23T11:32:03.320Z,1.00
2022-08-23T11:35:05.747Z,0.93
2022-08-23T11:38:08.958Z,0.80
2022-08-23T11:41:25.209Z,0.90
2022-08-23T11:44:46.843Z,0.80
2022-08-23T11:48:03.962Z,1.70
2022-08-23T11:51:11.932Z,0.80
2022-08-23T11:54:51.953Z,0.80
2022-08-23T11:58:46.060Z,1.10
2022-08-23T12:01:48.090Z,1.00
2022-08-23T12:04:53.725Z,0.80
2022-08-23T12:08:02.518Z,0.90
2022-08-23T12:11:09.152Z,1.00
2022-08-23T12:14:36.487Z,0.93
2022-08-23T12:18:08.441Z,1.23
2022-08-23T12:21:31.534Z,0.90
2022-08-23T12:24:47.650Z,0.93
2022-08-23T12:27:56.937Z,1.02
2022-08-23T12:31:14.634Z,1.13
2022-08-23T12:34:33.891Z,1.10
2022-08-23T12:38:18.091Z,1.00
2022-08-23T12:41:59.041Z,0.85
2022-08-23T12:45:02.963Z,1.00
2022-08-23T12:48:09.011Z,0.90
2022-08-23T12:51:12.951Z,1.00
2022-08-23T12:54:19.551Z,0.98
2022-08-23T12:57:39.715Z,1.10
2022-08-23T13:00:52.947Z,1.00
2022-08-23T13:04:15.031Z,1.10
2022-08-23T13:07:23.236Z,0.90
2022-08-23T13:10:26.522Z,1.10
2022-08-23T13:13:28.820Z,1.27
2022-08-23T13:16:44.336Z,1.17
2022-08-23T13:19:49.930Z,1.10
2022-08-23T13:23:04.040Z,1.80
2022-08-23T13:26:24.674Z,1.30
2022-08-23T13:29:26.513Z,1.10
2022-08-23T13:32:36.619Z,1.33
2022-08-23T13:35:47.123Z,1.20
2022-08-23T13:38:50.656Z,1.10
2022-08-23T13:41:52.800Z,1.45
2022-08-23T13:44:55.176Z,1.38
2022-08-23T13:48:20.921Z,1.10
2022-08-23T13:51:36.952Z,1.27
2022-08-23T13:54:39.559Z,1.15
2022-08-23T13:57:42.975Z,1.10
2022-08-23T14:00:55.464Z,1.13
2022-08-23T14:03:58.342Z,1.17
2022-08-23T14:07:00.359Z,1.25
2022-08-23T14:10:02.328Z,1.10
2022-08-23T14:13:04.760Z,1.20
2022-08-23T14:22:53.822Z,1.30
2022-08-23T14:25:56.703Z,1.48
2022-08-23T14:28:58.619Z,1.17
2022-08-23T14:32:01.415Z,1.17
2022-08-23T14:35:03.791Z,1.20
2022-08-23T14:38:05.652Z,1.10
2022-08-23T14:41:12.823Z,1.20
2022-08-23T14:44:16.525Z,1.27
2022-08-23T14:47:18.898Z,1.25
2022-08-23T14:50:20.939Z,1.30
2022-08-23T14:53:27.225Z,1.42
2022-08-23T14:56:29.236Z,1.50
2022-08-23T14:59:31.029Z,1.42
2022-08-23T15:02:36.551Z,1.40
2022-08-23T15:05:38.614Z,1.13
2022-08-23T15:08:41.364Z,1.00
2022-08-23T15:15:12.807Z,1.35
2022-08-23T15:18:15.700Z,1.17
2022-08-23T15:21:18.568Z,1.40
2022-08-23T15:24:20.601Z,1.30
2022-08-23T15:27:24.211Z,1.25
2022-08-23T15:30:26.201Z,1.20
2022-08-23T15:33:33.720Z,1.50
2022-08-23T15:36:41.498Z,1.20
2022-08-23T15:39:43.646Z,1.10
2022-08-23T15:42:45.686Z,1.20
2022-08-23T15:45:48.547Z,1.30
2022-08-23T15:48:59.217Z,1.15
2022-08-23T15:52:02.101Z,1.17
2022-08-23T15:55:05.511Z,1.27
2022-08-23T15:58:16.371Z,1.20
2022-08-23T16:01:20.746Z,1.40
2022-08-23T16:04:26.108Z,1.45
2022-08-23T16:07:32.638Z,1.38
2022-08-23T16:10:35.162Z,1.20
2022-08-23T16:13:40.851Z,1.30
2022-08-23T16:16:46.462Z,1.45
2022-08-23T16:19:48.849Z,1.40
2022-08-23T16:22:52.439Z,1.13
2022-08-23T16:25:57.902Z,1.35
2022-08-23T16:29:07.027Z,1.30
2022-08-23T16:32:09.049Z,1.25
2022-08-23T16:35:10.894Z,1.50
2022-08-23T16:38:12.752Z,1.20
2022-08-23T16:41:15.100Z,1.92
2022-08-23T16:44:18.308Z,1.25
2022-08-23T16:47:20.252Z,1.35
2022-08-23T16:50:22.188Z,1.10
2022-08-23T16:53:24.720Z,1.15
2022-08-23T16:56:27.514Z,1.38
2022-08-23T16:59:29.779Z,1.05
2022-08-23T17:02:35.047Z,1.40
2022-08-23T17:05:37.879Z,1.20
2022-08-23T17:08:41.146Z,1.50
2022-08-23T17:11:44.569Z,1.20
2022-08-23T17:14:49.040Z,1.27
2022-08-23T17:17:51.450Z,1.30
2022-08-23T17:20:53.356Z,1.20
2022-08-23T17:23:55.980Z,1.23
2022-08-23T17:26:57.909Z,1.52
2022-08-23T17:29:59.839Z,1.20
2022-08-23T17:33:02.263Z,1.27
2022-08-23T17:36:05.138Z,1.40
2022-08-23T17:39:11.849Z,1.30
2022-08-23T17:42:13.518Z,0.90
2022-08-23T17:45:15.536Z,1.10
2022-08-23T17:48:19.017Z,1.20
2022-08-23T17:51:20.660Z,1.30
2022-08-23T17:54:22.317Z,1.25
2022-08-23T17:57:24.403Z,0.85
2022-08-23T18:00:26.919Z,1.30
2022-08-23T18:03:30.688Z,1.25
2022-08-23T18:06:36.411Z,1.25
2022-08-23T18:09:43.782Z,1.17
2022-08-23T18:12:51.162Z,1.17
2022-08-23T18:15:53.731Z,1.33
2022-08-23T18:19:02.492Z,1.40
2022-08-23T18:22:04.343Z,1.48
2022-08-23T18:25:08.769Z,1.10
2022-08-23T18:28:11.295Z,1.27
2022-08-23T18:31:16.452Z,1.20
2022-08-23T18:34:19.199Z,1.30
2022-08-23T18:37:22.041Z,1.50
2022-08-23T18:40:25.615Z,1.40
2022-08-23T18:43:30.771Z,1.17
2022-08-23T18:46:42.107Z,1.35
2022-08-23T18:49:43.749Z,1.30
2022-08-23T18:52:45.514Z,1.50
2022-08-23T18:55:47.232Z,1.50
2022-08-23T18:58:49.096Z,1.40
2022-08-23T19:01:51.318Z,1.30
2022-08-23T19:04:59.273Z,1.10
2022-08-23T19:08:00.920Z,1.40
2022-08-23T19:11:02.587Z,1.20
2022-08-23T19:14:06.143Z,1.38
2022-08-23T19:17:10.447Z,1.35
2022-08-23T19:20:14.711Z,1.77
2022-08-23T19:23:17.366Z,1.38
2022-08-23T19:26:21.637Z,1.40
2022-08-23T19:29:23.489Z,1.13
2022-08-23T19:32:25.651Z,1.92
2022-08-23T19:35:30.249Z,1.83
2022-08-23T19:38:32.814Z,1.30
2022-08-23T19:41:37.143Z,1.52
2022-08-23T19:44:39.434Z,1.30
2022-08-23T19:47:41.469Z,1.92
2022-08-23T19:50:43.298Z,1.85
2022-08-23T19:54:04.609Z,1.60
2022-08-23T19:57:08.172Z,1.40
2022-08-23T20:00:19.294Z,1.80
2022-08-23T20:03:21.178Z,1.30
2022-08-23T20:06:22.848Z,1.50
2022-08-23T20:09:26.204Z,1.40
2022-08-23T20:12:29.088Z,1.23
2022-08-23T20:15:30.955Z,1.65
2022-08-23T20:18:32.820Z,1.63
2022-08-23T20:21:34.670Z,1.20
2022-08-23T20:24:51.431Z,1.67
2022-08-23T20:27:53.923Z,1.45
2022-08-23T20:30:55.792Z,1.40
2022-08-23T20:33:57.455Z,1.58
2022-08-23T20:36:59.104Z,1.45
2022-08-23T20:40:01.270Z,1.23
2022-08-23T20:43:03.176Z,1.25
2022-08-23T20:46:06.404Z,1.30
2022-08-23T20:49:09.599Z,1.70
2022-08-23T20:52:12.050Z,1.40
2022-08-23T20:55:14.061Z,1.58
2022-08-23T20:58:15.760Z,1.35
2022-08-23T21:01:18.336Z,1.40
2022-08-23T21:04:20.130Z,1.58
2022-08-23T21:07:23.795Z,1.33
2022-08-23T21:10:30.035Z,2.08
2022-08-23T21:13:32.794Z,1.80
2022-08-23T21:16:35.025Z,1.30
2022-08-23T21:19:38.076Z,1.75
2022-08-23T21:22:39.773Z,1.42
2022-08-23T21:25:41.638Z,1.58
2022-08-23T21:28:43.527Z,1.63
2022-08-23T21:31:45.263Z,1.50
2022-08-23T21:34:50.047Z,1.23
2022-08-23T21:37:51.802Z,1.63
2022-08-23T21:41:01.450Z,1.50
2022-08-23T21:44:05.816Z,1.50
2022-08-23T21:47:07.475Z,1.33
2022-08-23T21:50:09.639Z,1.67
2022-08-23T21:53:12.200Z,1.40
2022-08-23T21:56:14.849Z,1.27
2022-08-23T21:59:18.217Z,1.30
2022-08-23T22:02:20.199Z,1.25
2022-08-23T22:05:21.991Z,1.50
2022-08-23T22:08:23.862Z,1.45
2022-08-23T22:11:25.633Z,1.63
2022-08-23T22:14:31.187Z,1.67
2022-08-23T22:17:33.453Z,1.80
2022-08-23T22:20:35.196Z,1.35
2022-08-23T22:23:41.853Z,1.65
2022-08-23T22:26:44.291Z,1.30
2022-08-23T22:29:46.599Z,1.30
2022-08-23T22:32:49.598Z,1.42
2022-08-23T22:35:51.833Z,1.63
2022-08-23T22:38:53.418Z,1.40
2022-08-23T22:41:55.589Z,1.27
2022-08-23T22:44:57.329Z,1.67
2022-08-23T22:47:59.208Z,1.90
2022-08-23T22:51:10.614Z,1.60
2022-08-23T22:54:12.621Z,1.58
2022-08-23T22:57:14.180Z,1.38
2022-08-23T23:00:16.253Z,1.70
2022-08-23T23:03:18.107Z,1.50
2022-08-23T23:06:20.173Z,1.42
2022-08-23T23:09:22.212Z,1.50
2022-08-23T23:12:24.591Z,1.50
2022-08-23T23:15:26.541Z,1.73
2022-08-23T23:18:28.461Z,1.27
2022-08-23T23:21:41.492Z,1.65
2022-08-23T23:24:43.383Z,1.75
2022-08-23T23:27:45.186Z,1.77
2022-08-23T23:30:50.573Z,1.50
2022-08-23T23:33:52.651Z,1.77
2022-08-23T23:36:58.404Z,1.75
2022-08-23T23:40:00.333Z,1.60
2022-08-23T23:43:02.223Z,1.70
2022-08-23T23:46:10.815Z,1.40
2022-08-23T23:49:13.153Z,1.73
2022-08-23T23:52:15.342Z,1.77
2022-08-23T23:55:19.377Z,1.67
2022-08-23T23:58:20.991Z,1.73
